Time;durP1;ratioP1;P1;durP2;ratioP2;P2;SDS_P1;SDS_P2;PMS_P1;PMS_P2;Temp;Humidity;BMP_temperature;BMP_pressure;BME280_temperature;BME280_humidity;BME280_pressure;Samples;Min_cycle;Max_cycle;Signal;HPM_P1;HPM_P2
2022/04/04 00:02:09;;;;;;;6.40;2.70;;;3.50;99.90;;;;;;5099022;27;20400;-77
2022/04/04 00:04:35;;;;;;;3.40;2.35;;;3.50;99.90;;;;;;5101855;27;20062;-78
2022/04/04 00:07:02;;;;;;;3.45;2.58;;;3.50;99.90;;;;;;5134014;27;20035;-77
2022/04/04 00:09:29;;;;;;;4.18;2.50;;;3.60;99.90;;;;;;5098481;27;20053;-78
2022/04/04 00:11:55;;;;;;;5.47;2.45;;;3.50;99.90;;;;;;5121004;27;20414;-78
2022/04/04 00:14:21;;;;;;;4.03;2.30;;;3.50;99.90;;;;;;5132724;27;20038;-77
2022/04/04 00:16:47;;;;;;;6.10;2.42;;;3.40;99.90;;;;;;5117850;27;20288;-77
2022/04/04 00:19:14;;;;;;;4.43;2.33;;;3.50;99.90;;;;;;5109252;27;20046;-76
2022/04/04 00:21:41;;;;;;;4.53;2.47;;;3.50;99.90;;;;;;5125025;27;20035;-76
2022/04/04 00:24:07;;;;;;;4.40;2.53;;;3.50;99.90;;;;;;5123038;28;20503;-78
2022/04/04 00:26:34;;;;;;;5.75;2.28;;;3.50;99.90;;;;;;5124343;28;20092;-77
2022/04/04 00:29:00;;;;;;;4.75;2.30;;;3.50;99.90;;;;;;5099098;28;20084;-76
2022/04/04 00:31:26;;;;;;;3.55;2.47;;;3.50;99.90;;;;;;5112830;27;20042;-78
2022/04/04 00:33:52;;;;;;;3.38;2.05;;;3.50;99.90;;;;;;5120536;28;20039;-78
2022/04/04 00:36:17;;;;;;;3.03;1.98;;;3.50;99.90;;;;;;5130374;27;20080;-77
2022/04/04 00:38:43;;;;;;;8.43;2.40;;;3.40;99.90;;;;;;5110282;28;20047;-78
2022/04/04 00:41:10;;;;;;;3.20;2.25;;;3.40;99.90;;;;;;5123152;27;20430;-78
2022/04/04 00:43:37;;;;;;;3.28;2.50;;;3.40;99.90;;;;;;5104684;28;20527;-77
2022/04/04 00:46:03;;;;;;;4.97;2.60;;;3.40;99.90;;;;;;5127932;27;20046;-77
2022/04/04 00:48:29;;;;;;;3.35;2.47;;;3.50;99.90;;;;;;5113029;28;20073;-78
2022/04/04 00:50:55;;;;;;;5.57;2.95;;;3.50;99.90;;;;;;5118818;28;20085;-78
2022/04/04 00:53:20;;;;;;;4.28;2.92;;;3.50;99.90;;;;;;5127338;27;20074;-77
2022/04/04 00:55:46;;;;;;;6.72;2.70;;;3.50;99.90;;;;;;5119323;28;20047;-77
2022/04/04 00:58:15;;;;;;;3.42;2.70;;;3.50;99.90;;;;;;5121625;27;20057;-77
2022/04/04 01:00:43;;;;;;;3.88;2.70;;;3.50;99.90;;;;;;5113525;28;20043;-77
2022/04/04 01:03:09;;;;;;;6.05;3.10;;;3.60;99.90;;;;;;5115499;27;20035;-77
2022/04/04 01:05:35;;;;;;;4.27;3.47;;;3.50;99.90;;;;;;5120699;28;20042;-77
2022/04/04 01:08:00;;;;;;;4.67;3.23;;;3.60;99.90;;;;;;5128160;27;20367;-77
2022/04/04 01:10:28;;;;;;;5.70;3.53;;;3.60;99.90;;;;;;5133918;27;20371;-77
2022/04/04 01:12:55;;;;;;;5.13;3.38;;;3.60;99.90;;;;;;5127785;27;20097;-77
2022/04/04 01:15:23;;;;;;;6.82;3.30;;;3.60;99.90;;;;;;5128474;27;20095;-77
2022/04/04 01:17:50;;;;;;;8.00;4.13;;;3.60;99.90;;;;;;5124551;27;20561;-77
2022/04/04 01:20:16;;;;;;;5.95;3.47;;;3.70;99.90;;;;;;5125035;27;20034;-77
2022/04/04 01:22:51;;;;;;;8.27;4.60;;;3.70;99.90;;;;;;5132474;27;20217;-77
2022/04/04 01:25:24;;;;;;;8.82;4.70;;;3.80;99.90;;;;;;5129081;27;20079;-78
2022/04/04 01:27:50;;;;;;;8.50;4.63;;;3.90;99.90;;;;;;5124097;27;20611;-76
2022/04/04 01:30:16;;;;;;;7.70;4.55;;;3.90;99.90;;;;;;5130067;27;20062;-78
2022/04/04 01:32:45;;;;;;;6.85;5.30;;;3.90;99.90;;;;;;5121948;27;20034;-78
2022/04/04 01:35:11;;;;;;;7.43;5.25;;;3.90;99.90;;;;;;5124407;27;20045;-78
2022/04/04 01:37:37;;;;;;;8.63;5.63;;;3.90;99.90;;;;;;5129201;27;20083;-77
2022/04/04 01:40:04;;;;;;;8.73;5.47;;;4.00;99.90;;;;;;5123246;27;20043;-78
2022/04/04 01:42:31;;;;;;;8.65;5.97;;;4.00;99.90;;;;;;5132038;27;20046;-76
2022/04/04 01:44:57;;;;;;;9.02;6.30;;;4.00;99.90;;;;;;5122950;27;20509;-78
2022/04/04 01:47:23;;;;;;;10.70;6.63;;;4.00;99.90;;;;;;5116081;27;20093;-77
2022/04/04 01:49:48;;;;;;;9.23;6.87;;;4.00;99.90;;;;;;5117487;27;20043;-77
2022/04/04 01:52:14;;;;;;;12.90;7.45;;;4.10;99.90;;;;;;5114748;27;20312;-77
2022/04/04 01:54:40;;;;;;;13.82;8.32;;;4.20;99.90;;;;;;5115760;27;20035;-76
2022/04/04 01:57:06;;;;;;;11.30;8.50;;;4.20;99.90;;;;;;5122871;27;20213;-77
2022/04/04 01:59:32;;;;;;;12.13;7.80;;;4.20;99.90;;;;;;5137257;27;20046;-77
2022/04/04 02:01:57;;;;;;;12.85;9.32;;;4.30;99.90;;;;;;5118462;27;20551;-76
2022/04/04 02:04:23;;;;;;;8.40;6.33;;;4.20;99.90;;;;;;5124596;27;20093;-77
2022/04/04 02:06:49;;;;;;;13.60;9.20;;;4.30;99.90;;;;;;5131664;27;20039;-78
2022/04/04 02:09:15;;;;;;;12.82;9.48;;;4.30;99.90;;;;;;5136278;27;20075;-77
2022/04/04 02:11:42;;;;;;;12.95;9.65;;;4.30;99.90;;;;;;5136081;27;20098;-77
2022/04/04 02:14:07;;;;;;;11.95;9.20;;;4.30;99.90;;;;;;5133474;27;20043;-77
2022/04/04 02:16:34;;;;;;;12.25;9.43;;;4.30;99.90;;;;;;5118338;27;20091;-77
2022/04/04 02:18:59;;;;;;;15.05;8.90;;;4.40;99.90;;;;;;5119191;27;20046;-77
2022/04/04 02:21:26;;;;;;;16.17;9.55;;;4.30;99.90;;;;;;5129591;27;20038;-76
2022/04/04 02:23:52;;;;;;;10.55;8.30;;;4.30;99.90;;;;;;5118627;27;20076;-78
2022/04/04 02:26:18;;;;;;;11.75;9.07;;;4.40;99.90;;;;;;5117796;27;20126;-76
2022/04/04 02:28:44;;;;;;;11.98;8.63;;;4.40;99.90;;;;;;5134305;27;20042;-76
2022/04/04 02:31:10;;;;;;;12.40;9.07;;;4.30;99.90;;;;;;5130385;27;20042;-76
2022/04/04 02:33:36;;;;;;;12.75;8.68;;;4.30;99.90;;;;;;5130270;27;20035;-77
2022/04/04 02:36:02;;;;;;;15.15;9.43;;;4.20;99.90;;;;;;5115805;27;20107;-76
2022/04/04 02:38:28;;;;;;;12.27;9.77;;;4.40;99.90;;;;;;5101121;27;20114;-70
2022/04/04 02:40:55;;;;;;;14.27;9.63;;;4.30;99.90;;;;;;5117071;27;20049;-70
2022/04/04 02:43:21;;;;;;;11.63;10.10;;;4.40;99.90;;;;;;5114210;27;20074;-70
2022/04/04 02:45:48;;;;;;;15.45;10.25;;;4.40;99.90;;;;;;5127542;27;20058;-70
2022/04/04 02:48:16;;;;;;;12.77;9.32;;;4.40;99.90;;;;;;5119761;27;20050;-70
2022/04/04 02:50:44;;;;;;;15.32;10.23;;;4.50;99.90;;;;;;5129204;27;20031;-71
2022/04/04 02:53:10;;;;;;;18.35;10.68;;;4.50;99.90;;;;;;5139042;27;20347;-70
2022/04/04 02:58:20;;;;;;;12.52;9.57;;;4.50;99.90;;;;;;5127295;27;20095;-70
2022/04/04 03:00:45;;;;;;;16.10;10.33;;;4.50;99.90;;;;;;5097373;27;20440;-70
2022/04/04 03:03:11;;;;;;;14.75;10.77;;;4.50;99.90;;;;;;5104900;27;20308;-70
2022/04/04 03:05:37;;;;;;;14.98;10.40;;;4.60;99.90;;;;;;5106438;27;20058;-70
2022/04/04 03:08:04;;;;;;;12.57;10.25;;;4.70;99.90;;;;;;5129515;27;20039;-70
2022/04/04 03:10:31;;;;;;;15.30;10.10;;;4.70;99.90;;;;;;5117150;27;20094;-70
2022/04/04 03:13:00;;;;;;;13.88;9.75;;;4.60;99.90;;;;;;5133701;27;20121;-70
2022/04/04 03:15:26;;;;;;;16.83;10.68;;;4.70;99.90;;;;;;5105256;27;20092;-71
2022/04/04 03:17:54;;;;;;;15.80;10.57;;;4.70;99.90;;;;;;5103069;27;20062;-69
2022/04/04 03:20:21;;;;;;;16.38;10.60;;;4.70;99.90;;;;;;5123700;27;20047;-69
2022/04/04 03:22:50;;;;;;;14.65;10.32;;;4.80;99.90;;;;;;5111016;27;20038;-70
2022/04/04 03:25:17;;;;;;;13.07;9.85;;;4.80;99.90;;;;;;5132933;27;20103;-71
2022/04/04 03:27:44;;;;;;;19.80;11.38;;;4.80;99.90;;;;;;5120329;27;20039;-70
2022/04/04 03:30:17;;;;;;;13.75;10.05;;;4.80;99.90;;;;;;5113657;27;20142;-70
2022/04/04 03:32:44;;;;;;;17.17;10.75;;;4.80;99.90;;;;;;5126839;27;20054;-71
2022/04/04 03:35:10;;;;;;;;;;;4.80;99.90;;;;;;5102696;27;20047;-70
2022/04/04 03:37:38;;;;;;;14.80;10.05;;;4.90;99.90;;;;;;5123436;27;20355;-70
2022/04/04 03:40:05;;;;;;;16.38;10.82;;;5.00;99.90;;;;;;5114316;27;20078;-70
2022/04/04 03:42:31;;;;;;;19.50;11.20;;;4.90;99.90;;;;;;5123249;27;20047;-70
2022/04/04 03:44:56;;;;;;;17.42;10.68;;;4.90;99.90;;;;;;5113681;27;20517;-71
2022/04/04 03:47:22;;;;;;;15.45;10.95;;;4.90;99.90;;;;;;5124381;27;20067;-70
2022/04/04 03:49:49;;;;;;;15.30;10.60;;;5.00;99.90;;;;;;5105362;27;20049;-70
2022/04/04 03:52:15;;;;;;;16.48;11.20;;;5.00;99.90;;;;;;5128308;27;20433;-70
2022/04/04 03:54:41;;;;;;;16.27;11.07;;;5.00;99.90;;;;;;5132715;27;20077;-70
2022/04/04 03:57:07;;;;;;;;;;;5.00;99.90;;;;;;5131484;27;20148;-70
2022/04/04 03:59:33;;;;;;;19.50;11.88;;;4.90;99.90;;;;;;5143296;27;19923;-70
2022/04/04 04:01:59;;;;;;;16.58;12.00;;;4.90;99.90;;;;;;5121614;27;20083;-70
2022/04/04 04:04:24;;;;;;;17.50;11.23;;;4.90;99.90;;;;;;5102078;27;20096;-71
2022/04/04 04:06:51;;;;;;;17.90;11.52;;;4.90;99.90;;;;;;5115026;27;20071;-70
2022/04/04 04:09:18;;;;;;;15.52;11.00;;;4.90;99.90;;;;;;5123330;27;20044;-69
2022/04/04 04:11:44;;;;;;;;;;;4.80;99.90;;;;;;5132453;27;20049;-69
2022/04/04 04:14:10;;;;;;;15.50;11.70;;;4.90;99.90;;;;;;5118192;27;19919;-70
2022/04/04 04:16:35;;;;;;;21.02;12.73;;;4.90;99.90;;;;;;5096530;27;20100;-70
2022/04/04 04:19:01;;;;;;;17.95;11.40;;;4.90;99.90;;;;;;5103265;27;20092;-70
2022/04/04 04:21:27;;;;;;;17.33;12.40;;;5.00;99.90;;;;;;5117810;27;20039;-71
2022/04/04 04:23:53;;;;;;;15.25;11.35;;;4.90;99.90;;;;;;5105968;27;20058;-71
2022/04/04 04:26:21;;;;;;;19.20;12.10;;;4.90;99.90;;;;;;5109467;27;20061;-71
2022/04/04 04:28:47;;;;;;;16.55;11.75;;;5.00;99.90;;;;;;5132724;27;20141;-71
2022/04/04 04:31:16;;;;;;;16.73;11.52;;;5.00;99.90;;;;;;5126913;28;20064;-71
2022/04/04 04:33:42;;;;;;;18.73;12.32;;;5.00;99.90;;;;;;5113024;28;20516;-70
2022/04/04 04:36:08;;;;;;;22.08;11.60;;;5.00;99.90;;;;;;5129668;27;20181;-70
2022/04/04 04:38:34;;;;;;;18.75;12.60;;;5.00;99.90;;;;;;5127792;27;20027;-71
2022/04/04 04:41:00;;;;;;;15.75;11.48;;;5.00;99.90;;;;;;5114679;27;20122;-71
2022/04/04 04:43:26;;;;;;;18.25;11.88;;;5.10;99.90;;;;;;5113654;27;20130;-71
2022/04/04 04:45:53;;;;;;;18.90;11.80;;;5.10;99.90;;;;;;5116591;27;20168;-70
2022/04/04 04:48:19;;;;;;;19.33;12.20;;;5.10;99.90;;;;;;5121548;27;20038;-71
2022/04/04 04:50:46;;;;;;;17.38;12.05;;;5.10;99.90;;;;;;5112493;27;20449;-70
2022/04/04 04:53:12;;;;;;;22.27;11.88;;;5.20;99.90;;;;;;5136026;27;20038;-70
2022/04/04 04:55:37;;;;;;;17.80;11.48;;;5.20;99.90;;;;;;5125846;27;20047;-71
2022/04/04 04:58:03;;;;;;;18.05;11.30;;;5.20;99.90;;;;;;5144738;27;20043;-70
2022/04/04 05:00:29;;;;;;;18.13;10.77;;;5.20;99.90;;;;;;5135189;27;20089;-70
2022/04/04 05:05:41;;;;;;;16.17;11.93;;;5.20;99.90;;;;;;5122703;27;20162;-70
2022/04/04 05:08:07;;;;;;;17.05;11.82;;;5.10;99.90;;;;;;5128315;27;20355;-71
2022/04/04 05:10:33;;;;;;;17.40;12.02;;;5.10;99.90;;;;;;5118266;27;20071;-71
2022/04/04 05:12:58;;;;;;;18.35;12.07;;;5.10;99.90;;;;;;5120373;27;20101;-71
2022/04/04 05:15:25;;;;;;;20.20;11.77;;;5.10;99.90;;;;;;5123258;27;20061;-70
2022/04/04 05:17:52;;;;;;;16.25;11.35;;;5.00;99.90;;;;;;5119219;27;20049;-70
2022/04/04 05:20:19;;;;;;;18.73;11.00;;;5.10;99.90;;;;;;5134740;27;20039;-73
2022/04/04 05:22:45;;;;;;;18.30;10.15;;;5.00;99.90;;;;;;5134285;27;20031;-72
2022/04/04 05:25:11;;;;;;;14.85;9.20;;;5.00;99.90;;;;;;5129199;27;20047;-71
2022/04/04 05:27:38;;;;;;;13.32;8.32;;;5.00;99.90;;;;;;5117818;27;20077;-72
2022/04/04 05:30:05;;;;;;;13.48;8.45;;;5.00;99.90;;;;;;5116260;27;20033;-71
2022/04/04 05:32:30;;;;;;;16.95;7.80;;;5.10;99.90;;;;;;5116451;27;20383;-72
2022/04/04 05:34:56;;;;;;;14.05;8.75;;;5.20;99.90;;;;;;5126551;27;20046;-70
2022/04/04 05:37:22;;;;;;;13.27;7.50;;;5.20;99.90;;;;;;5124637;27;20130;-71
2022/04/04 05:39:47;;;;;;;14.15;8.07;;;5.20;99.90;;;;;;5092915;27;20492;-72
2022/04/04 05:42:13;;;;;;;11.85;8.38;;;5.20;99.90;;;;;;5124133;27;20099;-71
2022/04/04 05:44:39;;;;;;;12.20;7.88;;;5.20;99.90;;;;;;5132957;27;20089;-72
2022/04/04 05:47:05;;;;;;;14.93;8.25;;;5.20;99.90;;;;;;5101722;27;20035;-72
2022/04/04 05:49:30;;;;;;;13.98;7.93;;;5.20;99.90;;;;;;5132742;27;20034;-71
2022/04/04 05:51:56;;;;;;;14.40;8.60;;;5.10;99.90;;;;;;5134719;27;20694;-71
2022/04/04 05:54:22;;;;;;;13.27;7.53;;;5.10;99.90;;;;;;5125405;27;20043;-72
2022/04/04 05:56:47;;;;;;;16.73;7.97;;;5.10;99.90;;;;;;5119055;27;20038;-71
2022/04/04 05:59:13;;;;;;;11.83;6.60;;;5.00;99.90;;;;;;5127882;27;20283;-70
2022/04/04 06:01:40;;;;;;;13.55;7.20;;;5.10;99.90;;;;;;5107214;27;20779;-72
2022/04/04 06:04:06;;;;;;;14.43;6.60;;;5.00;99.90;;;;;;5134779;27;20066;-71
2022/04/04 06:06:32;;;;;;;6.57;5.05;;;5.10;99.90;;;;;;5130385;27;20092;-71
2022/04/04 06:08:58;;;;;;;9.50;5.35;;;5.00;99.90;;;;;;5115494;27;20342;-71
2022/04/04 06:11:24;;;;;;;9.55;4.68;;;5.00;99.90;;;;;;5103790;27;20033;-71
2022/04/04 06:13:50;;;;;;;7.03;4.10;;;4.90;99.90;;;;;;5132381;27;20057;-71
2022/04/04 06:16:15;;;;;;;9.07;4.20;;;4.80;99.90;;;;;;5121849;27;20114;-71
2022/04/04 06:18:42;;;;;;;9.40;3.50;;;4.80;99.90;;;;;;5133737;27;20191;-70
2022/04/04 06:21:09;;;;;;;7.32;3.42;;;4.70;99.90;;;;;;5097503;27;20037;-70
2022/04/04 06:23:36;;;;;;;6.85;3.15;;;4.70;99.90;;;;;;5120529;27;20035;-69
2022/04/04 06:26:05;;;;;;;8.27;3.72;;;4.60;99.90;;;;;;5080757;27;20179;-70
2022/04/04 06:28:31;;;;;;;9.85;4.05;;;4.60;99.90;;;;;;5118320;27;20035;-70
2022/04/04 06:30:58;;;;;;;;;;;4.70;99.90;;;;;;5103795;27;20119;-70
2022/04/04 06:33:24;;;;;;;6.03;3.13;;;4.70;99.90;;;;;;5131568;27;19923;-71
2022/04/04 06:35:50;;;;;;;5.70;3.20;;;4.60;99.90;;;;;;5088669;27;20119;-71
2022/04/04 06:38:18;;;;;;;6.90;3.10;;;4.70;99.90;;;;;;5113560;27;20056;-72
2022/04/04 06:40:44;;;;;;;8.90;3.65;;;4.60;99.90;;;;;;5120479;27;20119;-71
2022/04/04 06:43:10;;;;;;;6.00;3.30;;;4.70;99.90;;;;;;5120333;27;20127;-71
2022/04/04 06:45:36;;;;;;;6.43;3.22;;;4.60;99.90;;;;;;5100632;27;20122;-70
2022/04/04 06:48:02;;;;;;;10.73;3.33;;;4.80;99.90;;;;;;5118534;27;20045;-70
2022/04/04 06:50:30;;;;;;;5.85;3.20;;;4.80;99.90;;;;;;5120220;27;20031;-71
2022/04/04 06:52:56;;;;;;;5.03;3.30;;;4.70;99.90;;;;;;5135585;27;20047;-71
2022/04/04 06:55:22;;;;;;;;;;;4.70;99.90;;;;;;5111840;27;20039;-71
2022/04/04 06:57:48;;;;;;;5.55;3.35;;;4.70;99.90;;;;;;5134953;27;19919;-70
2022/04/04 07:00:16;;;;;;;8.65;4.03;;;4.70;99.90;;;;;;5112517;27;20049;-70
2022/04/04 07:02:43;;;;;;;6.38;3.67;;;4.70;99.90;;;;;;5133600;27;20043;-70
2022/04/04 07:05:09;;;;;;;5.90;3.60;;;4.80;99.90;;;;;;5126442;27;20041;-70
2022/04/04 07:07:35;;;;;;;5.97;3.78;;;4.80;99.90;;;;;;5133916;27;20038;-70
2022/04/04 07:10:03;;;;;;;8.07;5.32;;;4.80;99.90;;;;;;5133797;27;20048;-70
2022/04/04 07:12:29;;;;;;;9.13;4.40;;;4.80;99.90;;;;;;5131563;27;20050;-71
2022/04/04 07:14:55;;;;;;;8.40;4.78;;;5.00;99.90;;;;;;5103171;27;20042;-71
2022/04/04 07:17:21;;;;;;;12.55;5.07;;;5.00;99.90;;;;;;5127726;27;20043;-70
2022/04/04 07:19:47;;;;;;;6.50;5.13;;;5.10;99.90;;;;;;5116439;27;20046;-71
2022/04/04 07:22:14;;;;;;;8.90;5.38;;;5.00;99.90;;;;;;5128456;27;20558;-71
2022/04/04 07:24:40;;;;;;;9.55;5.63;;;5.20;99.90;;;;;;5130396;27;20054;-70
2022/04/04 07:27:06;;;;;;;8.55;5.40;;;5.20;99.90;;;;;;5128990;27;20397;-70
2022/04/04 07:29:32;;;;;;;11.00;6.05;;;5.20;99.90;;;;;;5134211;27;20031;-70
2022/04/04 07:31:58;;;;;;;9.32;6.10;;;5.30;99.90;;;;;;5119870;27;20122;-71
2022/04/04 07:34:24;;;;;;;10.85;6.20;;;5.20;99.90;;;;;;5125157;27;20062;-70
2022/04/04 07:36:50;;;;;;;9.43;6.38;;;5.20;99.90;;;;;;5133871;27;20157;-70
2022/04/04 07:39:15;;;;;;;11.10;6.70;;;5.40;99.90;;;;;;5122236;27;20495;-71
2022/04/04 07:41:41;;;;;;;8.10;6.20;;;5.30;99.90;;;;;;5119411;27;20047;-72
2022/04/04 07:44:07;;;;;;;11.63;6.53;;;5.30;99.90;;;;;;5113680;27;20034;-71
2022/04/04 07:46:33;;;;;;;8.90;6.40;;;5.50;99.90;;;;;;5120440;27;20072;-71
2022/04/04 07:48:59;;;;;;;10.73;7.20;;;5.50;99.90;;;;;;5150672;27;20038;-71
2022/04/04 07:51:26;;;;;;;9.30;6.47;;;5.30;99.90;;;;;;5130726;27;20486;-71
2022/04/04 07:53:51;;;;;;;10.15;6.45;;;5.50;99.90;;;;;;5114033;27;20053;-72
2022/04/04 07:56:19;;;;;;;9.13;6.88;;;5.50;99.90;;;;;;5097853;27;20046;-71
2022/04/04 07:58:45;;;;;;;9.20;6.00;;;5.60;99.90;;;;;;5113887;27;20039;-72
2022/04/04 08:01:12;;;;;;;12.15;6.53;;;5.60;99.90;;;;;;5114077;27;20132;-72
2022/04/04 08:03:37;;;;;;;9.25;6.28;;;5.70;99.90;;;;;;5128983;27;20511;-72
2022/04/04 08:06:03;;;;;;;8.37;6.60;;;5.70;99.90;;;;;;5126379;27;20043;-72
2022/04/04 08:08:29;;;;;;;9.05;6.25;;;5.50;99.90;;;;;;5113980;27;20288;-72
2022/04/04 08:10:57;;;;;;;7.95;5.47;;;5.60;99.90;;;;;;5114775;27;20470;-72
2022/04/04 08:13:24;;;;;;;9.32;6.03;;;5.80;99.90;;;;;;5117453;27;20038;-71
2022/04/04 08:15:50;;;;;;;10.18;5.10;;;5.70;99.90;;;;;;5118623;27;20042;-71
2022/04/04 08:18:16;;;;;;;7.15;5.40;;;5.70;99.90;;;;;;5134435;27;20515;-71
2022/04/04 08:20:43;;;;;;;11.07;5.53;;;5.90;99.90;;;;;;5133128;27;20070;-71
2022/04/04 08:23:08;;;;;;;7.18;5.13;;;5.80;99.90;;;;;;5116927;27;20129;-71
2022/04/04 08:25:35;;;;;;;8.98;5.38;;;5.90;99.90;;;;;;5094512;28;20126;-72
2022/04/04 08:28:01;;;;;;;;;;;5.80;99.90;;;;;;5077332;28;20043;-71
2022/04/04 08:30:26;;;;;;;7.45;4.80;;;5.80;99.90;;;;;;5127262;28;19919;-72
2022/04/04 08:32:52;;;;;;;8.13;4.50;;;5.80;99.90;;;;;;5111584;28;20092;-71
2022/04/04 08:35:18;;;;;;;7.32;4.43;;;5.80;99.90;;;;;;5099537;28;20039;-73
2022/04/04 08:37:46;;;;;;;5.70;4.00;;;6.10;99.90;;;;;;5118398;28;20047;-72
2022/04/04 08:40:13;;;;;;;5.35;3.63;;;6.00;99.90;;;;;;5116352;28;20051;-73
2022/04/04 08:42:39;;;;;;;6.03;3.42;;;6.00;99.90;;;;;;5108603;28;20488;-72
2022/04/04 08:45:06;;;;;;;4.95;3.72;;;5.80;99.90;;;;;;5126131;28;20042;-72
2022/04/04 08:47:32;;;;;;;;;;;5.80;99.90;;;;;;5098140;28;20048;-71
2022/04/04 08:50:00;;;;;;;4.45;3.35;;;5.90;99.90;;;;;;5097259;28;20338;-70
2022/04/04 08:52:29;;;;;;;4.88;3.10;;;5.90;99.90;;;;;;5099798;28;20461;-71
2022/04/04 08:54:55;;;;;;;5.07;3.40;;;6.00;99.90;;;;;;5127265;28;20071;-72
2022/04/04 08:57:21;;;;;;;4.30;2.78;;;6.10;99.90;;;;;;5112531;28;20460;-72
2022/04/04 08:59:47;;;;;;;3.42;2.70;;;6.10;99.90;;;;;;5123433;28;20122;-72
2022/04/04 09:02:13;;;;;;;4.10;3.10;;;6.00;99.90;;;;;;5117176;28;20043;-73
2022/04/04 09:04:40;;;;;;;;;;;6.00;99.90;;;;;;5096164;28;20047;-73
2022/04/04 09:07:10;;;;;;;4.53;3.17;;;6.00;99.90;;;;;;5130774;28;19916;-73
2022/04/04 09:09:44;;;;;;;4.72;2.70;;;6.20;99.90;;;;;;5117689;28;20129;-73
2022/04/04 09:12:11;;;;;;;5.60;2.50;;;6.00;99.90;;;;;;5124914;28;20150;-73
2022/04/04 09:14:49;;;;;;;4.40;2.53;;;6.20;99.90;;;;;;5126858;28;20379;-72
2022/04/04 09:17:32;;;;;;;4.97;2.88;;;6.30;99.90;;;;;;5115490;28;20614;-72
2022/04/04 09:19:58;;;;;;;5.25;2.60;;;6.20;99.90;;;;;;5109161;28;20036;-71
2022/04/04 09:22:25;;;;;;;4.85;2.53;;;6.20;99.90;;;;;;5115779;28;20075;-72
2022/04/04 09:25:01;;;;;;;4.55;2.50;;;6.30;99.90;;;;;;5123058;28;20182;-72
2022/04/04 09:27:32;;;;;;;3.47;2.10;;;6.30;99.90;;;;;;5114845;28;20127;-72
2022/04/04 09:30:06;;;;;;;7.97;2.70;;;6.20;99.90;;;;;;5109370;28;20043;-73
2022/04/04 09:32:40;;;;;;;3.97;2.47;;;6.20;99.90;;;;;;5112879;28;20048;-73
2022/04/04 09:35:09;;;;;;;4.82;2.05;;;6.40;99.90;;;;;;5096344;28;20044;-73
2022/04/04 09:37:36;;;;;;;4.03;2.17;;;6.50;99.90;;;;;;5127759;27;20043;-74
2022/04/04 09:40:10;;;;;;;4.75;2.20;;;6.50;99.90;;;;;;5133501;27;20038;-73
2022/04/04 09:42:36;;;;;;;3.17;2.20;;;6.50;99.90;;;;;;5119289;27;20051;-73
2022/04/04 09:45:09;;;;;;;4.90;2.38;;;6.30;99.90;;;;;;5121389;27;20817;-74
2022/04/04 09:48:09;;;;;;;5.00;2.47;;;6.30;99.90;;;;;;5133568;27;20047;-74
2022/04/04 09:50:47;;;;;;;6.13;2.50;;;6.60;99.90;;;;;;5120898;27;20048;-73
2022/04/04 09:53:21;;;;;;;5.38;2.38;;;6.40;99.90;;;;;;5096356;28;20387;-73
2022/04/04 09:55:48;;;;;;;3.22;2.00;;;6.40;99.90;;;;;;5098514;27;20390;-73
2022/04/04 09:58:18;;;;;;;4.03;1.73;;;6.50;99.90;;;;;;5112789;28;20096;-73
2022/04/04 10:00:45;;;;;;;4.80;2.10;;;6.60;99.90;;;;;;5129869;27;20054;-72
2022/04/04 10:03:13;;;;;;;3.78;2.10;;;6.50;99.90;;;;;;5133494;27;20047;-76
2022/04/04 10:05:44;;;;;;;2.97;2.03;;;6.50;99.90;;;;;;5134429;27;20096;-76
2022/04/04 10:08:15;;;;;;;3.50;2.00;;;6.70;99.90;;;;;;5134536;27;20043;-76
2022/04/04 10:10:42;;;;;;;6.30;2.20;;;6.70;99.90;;;;;;5105413;28;20157;-76
2022/04/04 10:13:11;;;;;;;3.78;1.95;;;6.50;99.90;;;;;;5096774;28;20050;-76
2022/04/04 10:15:37;;;;;;;4.78;1.80;;;6.50;99.90;;;;;;5113326;27;20044;-75
2022/04/04 10:18:04;;;;;;;5.65;2.15;;;6.70;99.90;;;;;;5096955;28;20035;-75
2022/04/04 10:20:30;;;;;;;3.67;1.73;;;6.60;99.90;;;;;;5113609;28;20394;-75
2022/04/04 10:22:58;;;;;;;4.03;2.15;;;6.60;99.90;;;;;;5116165;27;20057;-75
2022/04/04 10:25:28;;;;;;;5.05;1.95;;;6.80;99.90;;;;;;5133725;27;20051;-76
2022/04/04 10:27:54;;;;;;;6.43;2.17;;;6.60;99.90;;;;;;5115365;27;20043;-76
2022/04/04 10:30:31;;;;;;;;;;;6.80;99.90;;;;;;5114367;28;20092;-76
2022/04/04 10:32:57;;;;;;;4.47;1.57;;;6.80;99.90;;;;;;5130654;27;20331;-76
2022/04/04 10:35:26;;;;;;;3.83;1.70;;;6.90;99.90;;;;;;5112918;28;20281;-76
2022/04/04 10:38:01;;;;;;;2.53;1.60;;;6.70;99.90;;;;;;5113083;27;20040;-76
2022/04/04 10:40:29;;;;;;;3.50;1.70;;;6.70;99.90;;;;;;5131352;27;20040;-77
2022/04/04 10:43:14;;;;;;;3.83;1.65;;;6.90;99.90;;;;;;5135093;27;20043;-75
2022/04/04 10:46:01;;;;;;;5.38;2.33;;;6.80;99.90;;;;;;5130462;27;20051;-76
2022/04/04 10:48:51;;;;;;;3.80;1.40;;;6.70;99.90;;;;;;5125095;27;20048;-76
2022/04/04 10:51:28;;;;;;;2.85;1.50;;;6.70;99.90;;;;;;5131370;27;20070;-77
2022/04/04 10:53:57;;;;;;;2.70;1.48;;;6.80;99.90;;;;;;5133335;27;20043;-76
2022/04/04 10:56:36;;;;;;;3.72;1.38;;;7.00;99.90;;;;;;5125399;27;20114;-76
2022/04/04 10:59:23;;;;;;;3.83;1.40;;;6.80;99.90;;;;;;5112920;28;20391;-76
2022/04/04 11:01:58;;;;;;;3.47;1.20;;;6.80;99.90;;;;;;5112828;28;20100;-76
2022/04/04 11:04:32;;;;;;;3.42;1.30;;;6.90;99.90;;;;;;5095901;28;20032;-76
2022/04/04 11:09:57;;;;;;;2.08;0.90;;;6.90;99.90;;;;;;5112417;28;20035;-76
2022/04/04 11:12:25;;;;;;;2.28;1.10;;;6.90;99.90;;;;;;5114279;27;20058;-77
2022/04/04 11:15:01;;;;;;;1.83;1.10;;;7.00;99.90;;;;;;5096316;27;20048;-75
2022/04/04 11:17:32;;;;;;;1.60;0.80;;;7.10;99.90;;;;;;5133510;27;20043;-75
2022/04/04 11:20:33;;;;;;;2.22;0.70;;;7.00;99.90;;;;;;5115050;27;20078;-76
2022/04/04 11:23:04;;;;;;;1.13;0.70;;;7.20;99.90;;;;;;5113945;27;20062;-76
2022/04/04 11:25:37;;;;;;;1.73;0.80;;;7.20;99.90;;;;;;5132803;27;20051;-76
2022/04/04 11:28:07;;;;;;;1.77;0.80;;;7.10;99.90;;;;;;5098898;27;20039;-76
2022/04/04 11:30:33;;;;;;;2.00;0.75;;;7.10;99.90;;;;;;5131325;27;20446;-76
2022/04/04 11:33:07;;;;;;;1.83;0.70;;;7.20;99.90;;;;;;5078376;28;20823;-76
2022/04/04 11:35:34;;;;;;;1.10;0.70;;;7.30;99.90;;;;;;5112083;28;20086;-76
2022/04/04 11:38:07;;;;;;;1.08;0.50;;;7.50;99.90;;;;;;5095729;28;20567;-76
2022/04/04 11:40:38;;;;;;;1.27;0.60;;;7.20;99.90;;;;;;5122383;27;20047;-76
2022/04/04 11:43:10;;;;;;;1.25;0.60;;;7.50;99.90;;;;;;5125709;27;20159;-76
2022/04/04 11:45:39;;;;;;;1.50;0.50;;;7.30;99.90;;;;;;5112494;28;20039;-76
2022/04/04 11:48:27;;;;;;;0.93;0.50;;;7.30;99.90;;;;;;5107294;28;20051;-77
2022/04/04 11:50:57;;;;;;;1.42;0.52;;;7.60;99.90;;;;;;5116630;27;20046;-77
2022/04/04 11:53:26;;;;;;;0.70;0.40;;;7.50;99.90;;;;;;5111993;28;20039;-77
2022/04/04 11:56:00;;;;;;;1.35;0.47;;;7.30;99.90;;;;;;5117854;27;20035;-77
2022/04/04 11:58:27;;;;;;;0.82;0.55;;;7.30;99.90;;;;;;5115234;27;20071;-77
2022/04/04 12:01:01;;;;;;;0.45;0.30;;;7.40;99.90;;;;;;5095196;28;20058;-77
2022/04/04 12:03:27;;;;;;;1.23;0.45;;;7.70;99.90;;;;;;5095091;28;20043;-76
2022/04/04 12:05:55;;;;;;;2.40;0.50;;;7.70;99.90;;;;;;5112163;28;20395;-77
2022/04/04 12:08:21;;;;;;;1.35;0.50;;;7.70;99.90;;;;;;5112139;28;20043;-76
2022/04/04 12:10:49;;;;;;;0.90;0.40;;;7.70;99.90;;;;;;5096735;27;20040;-77
2022/04/04 12:13:23;;;;;;;1.42;0.55;;;7.50;99.90;;;;;;5132654;27;20075;-77
2022/04/04 12:15:53;;;;;;;1.73;0.40;;;7.40;99.90;;;;;;5115457;28;20046;-77
2022/04/04 12:18:19;;;;;;;1.35;0.40;;;7.50;99.90;;;;;;5114924;28;20367;-77
2022/04/04 12:20:46;;;;;;;0.85;0.35;;;7.50;99.90;;;;;;5114170;28;20062;-76
2022/04/04 12:26:04;;;;;;;1.35;0.75;;;7.70;99.90;;;;;;5111591;28;20055;-77
2022/04/04 12:28:35;;;;;;;1.00;0.70;;;7.70;99.90;;;;;;5094233;28;20046;-77
2022/04/04 12:31:19;;;;;;;0.73;0.40;;;8.00;99.90;;;;;;5094413;28;20058;-77
2022/04/04 12:34:09;;;;;;;1.25;0.65;;;7.70;99.90;;;;;;5095481;28;20063;-76
2022/04/04 12:36:42;;;;;;;1.38;0.70;;;7.70;99.90;;;;;;5111721;28;20044;-77
2022/04/04 12:39:16;;;;;;;0.80;0.50;;;7.80;99.90;;;;;;5111328;28;20050;-76
2022/04/04 12:41:43;;;;;;;0.80;0.70;;;7.80;99.90;;;;;;5111750;28;20127;-76
2022/04/04 12:44:10;;;;;;;0.85;0.60;;;7.90;99.90;;;;;;5111423;28;20070;-77
2022/04/04 12:46:36;;;;;;;0.90;0.52;;;8.10;99.90;;;;;;5111576;28;20039;-77
2022/04/04 12:49:11;;;;;;;2.35;0.68;;;7.90;99.90;;;;;;5111295;28;20035;-77
2022/04/04 12:51:38;;;;;;;1.70;0.70;;;8.30;99.90;;;;;;5111405;28;20036;-77
2022/04/04 12:54:04;;;;;;;1.90;0.65;;;8.00;99.90;;;;;;5094919;28;20512;-76
2022/04/04 12:56:45;;;;;;;1.40;0.70;;;8.10;99.90;;;;;;5111601;28;20792;-76
2022/04/04 12:59:11;;;;;;;0.77;0.70;;;8.20;99.90;;;;;;5111258;28;20040;-77
2022/04/04 13:01:38;;;;;;;2.75;0.70;;;8.00;99.90;;;;;;5094713;28;20054;-77
2022/04/04 13:04:21;;;;;;;1.60;0.70;;;8.40;99.90;;;;;;5111791;28;20453;-77
2022/04/04 13:06:50;;;;;;;2.40;0.85;;;8.40;99.90;;;;;;5095490;28;20036;-77
2022/04/04 13:09:24;;;;;;;0.80;0.73;;;8.20;99.90;;;;;;5115574;28;20538;-77